createdAt,value
2018-03-02T00:02:10.826Z,51.80
2018-03-02T00:04:38.392Z,45.45
2018-03-02T00:07:05.901Z,47.97
2018-03-02T00:09:33.481Z,49.85
2018-03-02T00:12:01.749Z,49.55
2018-03-02T00:14:29.280Z,45.95
2018-03-02T00:16:56.785Z,45.72
2018-03-02T00:19:25.080Z,51.90
2018-03-02T00:21:52.616Z,50.33
2018-03-02T00:24:20.867Z,50.58
2018-03-02T00:26:48.445Z,52.67
2018-03-02T00:29:16.704Z,48.83
2018-03-02T00:31:44.259Z,51.50
2018-03-02T00:34:11.772Z,49.50
2018-03-02T00:36:39.280Z,46.65
2018-03-02T00:39:06.773Z,49.00
2018-03-02T00:41:34.267Z,49.28
2018-03-02T00:44:01.752Z,51.08
2018-03-02T00:46:29.296Z,45.70
2018-03-02T00:48:56.907Z,51.50
2018-03-02T00:51:24.455Z,47.88
2018-03-02T00:53:52.729Z,46.97
2018-03-02T00:56:20.983Z,49.20
2018-03-02T00:58:48.474Z,55.42
2018-03-02T01:01:16.032Z,48.38
2018-03-02T01:03:44.279Z,48.35
2018-03-02T01:06:11.775Z,52.10
2018-03-02T01:08:39.272Z,49.70
2018-03-02T01:11:06.876Z,54.90
2018-03-02T01:13:35.136Z,47.00
2018-03-02T01:16:02.629Z,51.22
2018-03-02T01:18:30.114Z,54.40
2018-03-02T01:20:57.634Z,49.53
2018-03-02T01:23:25.898Z,46.45
2018-03-02T01:25:54.158Z,56.50
2018-03-02T01:28:21.662Z,52.72
2018-03-02T01:30:49.162Z,47.50
2018-03-02T01:33:16.646Z,52.80
2018-03-02T01:35:44.920Z,46.35
2018-03-02T01:38:13.172Z,50.95
2018-03-02T01:40:40.664Z,49.15
2018-03-02T01:43:08.918Z,50.92
2018-03-02T01:45:36.416Z,53.90
2018-03-02T01:48:03.927Z,47.88
2018-03-02T01:50:31.513Z,50.67
2018-03-02T01:52:59.767Z,53.83
2018-03-02T01:55:27.356Z,54.20
2018-03-02T01:57:55.615Z,50.50
2018-03-02T02:00:23.105Z,50.95
2018-03-02T02:02:50.942Z,52.80
2018-03-02T02:05:18.441Z,55.72
2018-03-02T02:07:45.924Z,50.47
2018-03-02T02:10:13.431Z,52.30
2018-03-02T02:12:41.708Z,49.42
2018-03-02T02:15:09.987Z,52.70
2018-03-02T02:17:38.230Z,56.15
2018-03-02T02:20:05.815Z,51.08
2018-03-02T02:22:34.075Z,49.75
2018-03-02T02:25:01.588Z,50.00
2018-03-02T02:27:29.105Z,53.20
2018-03-02T02:29:57.388Z,45.50
2018-03-02T02:32:25.663Z,52.30
2018-03-02T02:34:53.926Z,51.85
2018-03-02T02:37:21.562Z,49.25
2018-03-02T02:39:49.102Z,49.50
2018-03-02T02:42:16.610Z,52.05
2018-03-02T02:44:44.858Z,53.78
2018-03-02T02:47:12.344Z,56.00
2018-03-02T02:49:40.592Z,53.15
2018-03-02T02:52:08.085Z,51.90
2018-03-02T02:54:36.345Z,51.35
2018-03-02T02:57:03.842Z,49.72
2018-03-02T02:59:31.335Z,47.75
2018-03-02T03:01:58.835Z,56.15
2018-03-02T03:04:27.094Z,50.28
2018-03-02T03:06:54.594Z,55.70
2018-03-02T03:09:22.113Z,50.05
2018-03-02T03:11:49.609Z,54.20
2018-03-02T03:14:17.093Z,51.05
2018-03-02T03:16:44.597Z,58.83
2018-03-02T03:19:12.884Z,51.33
2018-03-02T03:21:41.431Z,53.65
2018-03-02T03:24:08.921Z,50.08
2018-03-02T03:26:37.207Z,53.33
2018-03-02T03:29:05.486Z,58.20
2018-03-02T03:31:32.988Z,52.83
2018-03-02T03:34:00.470Z,57.55
2018-03-02T03:36:27.972Z,53.67
2018-03-02T03:38:55.461Z,54.03
2018-03-02T03:41:22.958Z,53.03
2018-03-02T03:43:51.212Z,49.10
2018-03-02T03:46:18.797Z,54.67
2018-03-02T03:48:47.077Z,50.75
2018-03-02T03:51:15.346Z,56.47
2018-03-02T03:53:42.913Z,60.08
2018-03-02T03:56:10.470Z,54.33
2018-03-02T03:58:38.728Z,50.30
2018-03-02T04:01:06.225Z,58.58
2018-03-02T04:03:33.717Z,49.75
2018-03-02T04:06:01.212Z,50.72
2018-03-02T04:08:28.780Z,50.40
2018-03-02T04:10:57.042Z,55.95
2018-03-02T04:13:24.614Z,55.25
2018-03-02T04:15:52.913Z,47.80
2018-03-02T04:18:20.459Z,49.38
2018-03-02T04:20:48.711Z,54.25
2018-03-02T04:23:16.305Z,55.25
2018-03-02T04:25:43.850Z,56.05
2018-03-02T04:28:12.118Z,53.38
2018-03-02T04:30:39.687Z,54.30
2018-03-02T04:33:07.995Z,49.85
2018-03-02T04:35:36.240Z,53.30
2018-03-02T04:38:04.499Z,55.47
2018-03-02T04:40:32.746Z,61.08
2018-03-02T04:43:00.260Z,60.88
2018-03-02T04:45:28.518Z,53.05
2018-03-02T04:47:56.034Z,55.25
2018-03-02T04:50:23.600Z,50.50
2018-03-02T04:52:51.099Z,53.58
2018-03-02T04:55:18.687Z,52.20
2018-03-02T04:57:46.179Z,57.13
2018-03-02T05:00:13.660Z,54.67
2018-03-02T05:02:41.247Z,57.58
2018-03-02T05:05:09.504Z,56.17
2018-03-02T05:07:37.087Z,54.72
2018-03-02T05:10:05.355Z,50.63
2018-03-02T05:12:33.670Z,54.10
2018-03-02T05:15:01.165Z,53.83
2018-03-02T05:17:28.754Z,56.00
2018-03-02T05:19:57.012Z,52.15
2018-03-02T05:22:24.591Z,48.28
2018-03-02T05:24:52.851Z,48.33
2018-03-02T05:27:20.339Z,55.38
2018-03-02T05:29:47.820Z,52.90
2018-03-02T05:32:15.351Z,52.03
2018-03-02T05:34:43.650Z,51.70
2018-03-02T05:37:11.157Z,61.25
2018-03-02T05:39:38.726Z,42.83
2018-03-02T05:42:06.234Z,57.05
2018-03-02T05:44:33.755Z,55.78
2018-03-02T05:47:01.314Z,59.60
2018-03-02T05:49:29.574Z,59.33
2018-03-02T05:51:57.945Z,65.70
2018-03-02T05:54:25.438Z,48.00
2018-03-02T05:56:53.707Z,56.05
2018-03-02T05:59:21.971Z,52.35
2018-03-02T06:01:50.226Z,53.47
2018-03-02T06:04:17.809Z,51.55
2018-03-02T06:06:46.117Z,58.10
2018-03-02T06:09:13.602Z,58.38
2018-03-02T06:11:41.107Z,57.62
2018-03-02T06:14:09.950Z,60.67
2018-03-02T06:16:37.461Z,60.88
2018-03-02T06:19:05.733Z,57.47
2018-03-02T06:21:34.000Z,59.03
2018-03-02T06:24:02.284Z,58.65
2018-03-02T06:26:30.551Z,54.95
2018-03-02T06:28:58.036Z,54.67
2018-03-02T06:31:25.534Z,46.70
2018-03-02T06:33:53.051Z,61.20
2018-03-02T06:36:20.557Z,59.20
2018-03-02T06:38:48.045Z,53.80
2018-03-02T06:41:15.539Z,55.05
2018-03-02T06:43:43.076Z,50.85
2018-03-02T06:46:11.342Z,52.10
2018-03-02T06:48:39.636Z,51.03
2018-03-02T06:51:07.906Z,54.88
2018-03-02T06:53:36.206Z,58.22
2018-03-02T06:56:04.033Z,63.08
2018-03-02T06:58:31.513Z,56.75
2018-03-02T07:00:59.026Z,64.25
2018-03-02T07:03:26.506Z,58.95
2018-03-02T07:05:54.124Z,63.45
2018-03-02T07:08:22.467Z,57.67
2018-03-02T07:10:49.960Z,65.05
2018-03-02T07:13:17.615Z,62.35
2018-03-02T07:15:45.074Z,65.40
2018-03-02T07:18:12.562Z,59.38
2018-03-02T07:20:40.091Z,61.88
2018-03-02T07:23:07.579Z,70.78
2018-03-02T07:25:35.065Z,62.40
2018-03-02T07:28:03.325Z,65.97
2018-03-02T07:30:30.819Z,60.55
2018-03-02T07:32:58.413Z,66.93
2018-03-02T07:35:25.907Z,66.97
2018-03-02T07:37:53.442Z,66.20
2018-03-02T07:40:21.034Z,60.28
2018-03-02T07:42:49.299Z,62.83
2018-03-02T07:45:18.303Z,70.32
2018-03-02T07:47:46.554Z,66.37
2018-03-02T07:50:14.059Z,70.03
2018-03-02T07:52:41.594Z,64.80
2018-03-02T07:55:09.912Z,71.80
2018-03-02T07:57:37.446Z,63.40
2018-03-02T08:00:05.724Z,68.37
2018-03-02T08:02:33.993Z,71.45
2018-03-02T08:05:02.260Z,72.22
2018-03-02T08:07:30.541Z,76.78
2018-03-02T08:09:58.795Z,69.20
2018-03-02T08:12:27.050Z,78.03
2018-03-02T08:14:54.531Z,74.07
2018-03-02T08:17:22.014Z,69.75
2018-03-02T08:19:50.273Z,75.18
2018-03-02T08:22:17.750Z,73.78
2018-03-02T08:24:46.023Z,72.85
2018-03-02T08:27:14.640Z,72.45
2018-03-02T08:29:42.130Z,81.47
2018-03-02T08:32:09.626Z,77.82
2018-03-02T08:34:37.886Z,76.55
2018-03-02T08:37:05.380Z,78.12
2018-03-02T08:39:32.963Z,78.72
2018-03-02T08:42:00.487Z,74.03
2018-03-02T08:44:27.974Z,75.25
2018-03-02T08:46:55.492Z,75.97
2018-03-02T08:49:23.780Z,78.30
2018-03-02T08:51:52.012Z,82.55
2018-03-02T08:54:19.550Z,79.22
2018-03-02T08:56:47.036Z,84.32
2018-03-02T08:59:14.534Z,80.62
2018-03-02T09:01:42.079Z,82.80
2018-03-02T09:04:10.380Z,76.95
2018-03-02T09:06:37.883Z,83.18
2018-03-02T09:09:05.370Z,77.78
2018-03-02T09:11:33.643Z,81.32
2018-03-02T09:14:01.921Z,81.05
2018-03-02T09:16:30.204Z,88.25
2018-03-02T09:53:21.763Z,67.55
2018-03-02T09:55:49.251Z,73.70
2018-03-02T09:58:17.587Z,69.15
2018-03-02T10:00:46.015Z,73.05
2018-03-02T10:03:13.600Z,70.10
2018-03-02T10:05:41.224Z,67.03
2018-03-02T10:08:08.751Z,65.45
2018-03-02T10:10:36.252Z,69.72
2018-03-02T10:13:03.758Z,69.85
2018-03-02T10:15:31.270Z,61.58
2018-03-02T10:17:58.804Z,69.72
2018-03-02T10:20:27.070Z,70.62
2018-03-02T10:22:54.567Z,59.45
2018-03-02T10:25:22.132Z,68.62
2018-03-02T10:27:49.837Z,60.88
2018-03-02T10:30:17.388Z,60.50
2018-03-02T10:32:44.854Z,65.05
2018-03-02T10:35:12.367Z,62.58
2018-03-02T10:37:39.912Z,59.80
2018-03-02T10:40:07.496Z,65.72
2018-03-02T10:42:34.998Z,66.47
2018-03-02T10:45:02.510Z,63.60
2018-03-02T10:47:30.006Z,67.43
2018-03-02T10:49:57.512Z,68.97
2018-03-02T10:52:25.019Z,69.22
2018-03-02T10:54:52.625Z,65.75
2018-03-02T10:57:20.137Z,70.47
2018-03-02T10:59:47.644Z,68.90
2018-03-02T11:02:21.019Z,63.00
2018-03-02T11:04:49.298Z,65.18
2018-03-02T11:07:17.575Z,65.07
2018-03-02T11:09:45.873Z,62.70
2018-03-02T11:12:13.439Z,61.87
2018-03-02T11:14:40.994Z,71.30
2018-03-02T11:17:08.499Z,71.05
2018-03-02T11:19:36.123Z,65.33
2018-03-02T11:22:03.613Z,75.53
2018-03-02T11:24:31.152Z,65.60
2018-03-02T11:26:58.694Z,67.30
2018-03-02T11:29:26.254Z,67.90
2018-03-02T11:31:53.758Z,75.30
2018-03-02T11:34:21.364Z,67.03
2018-03-02T11:36:49.649Z,61.33
2018-03-02T11:39:17.154Z,65.63
2018-03-02T11:41:44.642Z,61.83
2018-03-02T11:44:12.139Z,67.00
2018-03-02T11:46:39.696Z,63.87
2018-03-02T11:49:07.212Z,58.63
2018-03-02T11:51:34.710Z,73.33
2018-03-02T11:54:02.259Z,62.90
2018-03-02T11:56:29.835Z,56.07
2018-03-02T11:58:57.379Z,61.33
2018-03-02T12:01:25.640Z,63.03
2018-03-02T12:03:53.935Z,66.43
2018-03-02T12:06:21.444Z,57.00
2018-03-02T12:08:48.938Z,55.93
2018-03-02T12:11:17.232Z,55.50
2018-03-02T12:13:44.785Z,55.70
2018-03-02T12:16:12.290Z,54.53
2018-03-02T12:18:39.783Z,56.07
2018-03-02T12:21:08.220Z,57.37
2018-03-02T12:26:26.541Z,58.27
2018-03-02T12:28:54.187Z,52.77
2018-03-02T12:31:22.535Z,57.83
2018-03-02T12:33:51.659Z,52.30
2018-03-02T12:36:20.021Z,54.30
2018-03-02T12:38:47.726Z,53.87
2018-03-02T12:41:15.376Z,53.83
2018-03-02T12:43:43.081Z,54.70
2018-03-02T12:46:10.697Z,53.20
2018-03-02T12:48:39.069Z,52.40
2018-03-02T12:51:07.428Z,54.77
2018-03-02T12:53:35.006Z,51.33
2018-03-02T12:56:03.402Z,53.60
2018-03-02T12:58:31.039Z,50.30
2018-03-02T13:00:59.411Z,49.63
2018-03-02T13:03:26.998Z,50.87
2018-03-02T13:05:54.630Z,49.03
2018-03-02T13:08:23.002Z,48.73
2018-03-02T13:10:52.197Z,47.90
2018-03-02T13:13:19.879Z,49.27
2018-03-02T13:15:48.243Z,48.23
2018-03-02T13:18:29.349Z,50.13
2018-03-02T13:20:56.949Z,51.53
2018-03-02T13:23:24.571Z,56.42
2018-03-02T13:25:52.930Z,50.13
2018-03-02T13:28:33.046Z,58.50
2018-03-02T13:31:00.664Z,53.03
2018-03-02T13:33:40.288Z,52.10
2018-03-02T13:36:10.492Z,53.33
2018-03-02T13:38:38.063Z,55.10
2018-03-02T13:41:20.469Z,46.92
2018-03-02T13:43:48.963Z,48.65
2018-03-02T13:46:17.409Z,51.30
2018-03-02T13:48:57.027Z,51.58
2018-03-02T13:51:24.679Z,52.95
2018-03-02T13:53:52.282Z,55.40
2018-03-02T13:56:31.833Z,50.67
2018-03-02T13:58:59.515Z,50.80
2018-03-02T14:01:27.871Z,52.13
2018-03-02T14:04:07.262Z,48.40
2018-03-02T14:06:34.857Z,52.33
2018-03-02T14:09:02.487Z,51.03
2018-03-02T14:11:30.132Z,52.33
2018-03-02T14:13:58.560Z,51.22
2018-03-02T14:16:26.145Z,48.97
2018-03-02T14:18:53.737Z,48.75
2018-03-02T14:21:21.634Z,49.88
2018-03-02T14:23:49.259Z,49.88
2018-03-02T14:26:17.621Z,53.40
2018-03-02T14:28:45.995Z,50.47
2018-03-02T14:31:13.582Z,54.10
2018-03-02T14:33:41.923Z,54.45
2018-03-02T14:36:09.500Z,49.10
2018-03-02T14:38:37.164Z,50.60
2018-03-02T14:41:06.256Z,50.60
2018-03-02T14:43:33.840Z,50.67
2018-03-02T14:46:02.236Z,50.53
2018-03-02T14:48:29.834Z,47.10
2018-03-02T14:50:58.235Z,50.17
2018-03-02T14:53:25.912Z,51.67
2018-03-02T14:55:54.288Z,47.55
2018-03-02T14:58:22.635Z,46.58
2018-03-02T15:00:50.224Z,51.28
2018-03-02T15:03:18.594Z,53.50
2018-03-02T15:05:46.194Z,52.72
2018-03-02T15:08:13.827Z,52.42
2018-03-02T15:10:42.246Z,52.13
2018-03-02T15:13:09.805Z,52.20
2018-03-02T15:15:37.414Z,53.87
2018-03-02T15:18:05.009Z,56.17
2018-03-02T15:20:32.717Z,53.67
2018-03-02T15:23:00.325Z,48.67
2018-03-02T15:25:27.936Z,49.75
2018-03-02T15:27:56.343Z,53.22
2018-03-02T15:30:23.928Z,53.33
2018-03-02T15:32:52.288Z,56.63
2018-03-02T15:35:19.958Z,54.75
2018-03-02T15:37:48.299Z,52.10
2018-03-02T15:40:15.877Z,52.22
2018-03-02T15:42:43.463Z,53.90
2018-03-02T15:45:11.822Z,59.03
2018-03-02T15:47:39.441Z,55.63
2018-03-02T15:50:07.107Z,55.65
2018-03-02T15:52:34.691Z,59.22
2018-03-02T15:55:02.282Z,59.63
2018-03-02T15:57:30.652Z,52.85
2018-03-02T15:59:59.044Z,55.03
2018-03-02T16:02:26.818Z,54.88
2018-03-02T16:04:54.395Z,54.67
2018-03-02T16:07:22.004Z,57.30
2018-03-02T16:09:49.607Z,56.80
2018-03-02T16:12:17.201Z,53.78
2018-03-02T16:14:45.065Z,52.50
2018-03-02T16:17:12.666Z,49.92
2018-03-02T16:19:41.077Z,58.28
2018-03-02T16:22:08.687Z,52.97
2018-03-02T16:24:37.161Z,53.80
2018-03-02T16:27:04.756Z,54.58
2018-03-02T16:29:33.126Z,52.60
2018-03-02T16:32:00.715Z,51.17
2018-03-02T16:34:28.354Z,52.50
2018-03-02T16:36:56.714Z,47.72
2018-03-02T16:39:24.383Z,49.80
2018-03-02T16:41:52.060Z,49.13
2018-03-02T16:44:19.652Z,53.87
2018-03-02T16:46:47.268Z,43.83
2018-03-02T16:49:14.923Z,47.20
2018-03-02T16:51:44.300Z,47.97
2018-03-02T16:54:11.884Z,46.28
2018-03-02T16:56:39.576Z,44.92
2018-03-02T16:59:07.948Z,45.63
2018-03-02T17:01:36.342Z,47.05
2018-03-02T17:04:03.934Z,44.70
2018-03-02T17:06:31.544Z,45.83
2018-03-02T17:08:59.882Z,44.10
2018-03-02T17:11:27.585Z,44.17
2018-03-02T17:13:55.965Z,44.75
2018-03-02T17:16:24.367Z,41.05
2018-03-02T17:18:52.028Z,40.03
2018-03-02T17:21:19.689Z,44.83
2018-03-02T17:23:47.265Z,43.85
2018-03-02T17:26:14.847Z,45.08
2018-03-02T17:28:42.427Z,42.42
2018-03-02T17:31:10.015Z,41.50
2018-03-02T17:33:38.383Z,45.88
2018-03-02T17:36:06.051Z,43.70
2018-03-02T17:38:34.410Z,45.58
2018-03-02T17:41:02.058Z,41.45
2018-03-02T17:43:29.636Z,38.42
2018-03-02T17:45:57.238Z,44.95
2018-03-02T17:48:25.079Z,46.17
2018-03-02T17:50:53.439Z,41.92
2018-03-02T17:53:21.041Z,45.53
2018-03-02T17:55:48.735Z,37.83
2018-03-02T17:58:16.323Z,44.10
2018-03-02T18:00:43.916Z,39.75
2018-03-02T18:03:12.857Z,41.63
2018-03-02T18:05:40.509Z,36.92
2018-03-02T18:08:08.119Z,43.13
2018-03-02T18:10:37.352Z,39.90
2018-03-02T18:13:04.934Z,42.88
2018-03-02T18:15:32.617Z,43.10
2018-03-02T18:18:00.202Z,43.35
2018-03-02T18:20:28.564Z,43.20
2018-03-02T18:22:58.400Z,43.40
2018-03-02T18:25:26.764Z,42.50
2018-03-02T18:27:54.350Z,42.38
2018-03-02T18:30:21.945Z,42.25
2018-03-02T18:32:49.530Z,51.28
2018-03-02T18:35:17.126Z,45.22
2018-03-02T18:37:45.485Z,48.75
2018-03-02T18:40:13.781Z,42.35
2018-03-02T18:42:42.135Z,42.33
2018-03-02T18:45:09.845Z,44.15
2018-03-02T18:47:37.812Z,39.17
2018-03-02T18:50:05.824Z,40.97
2018-03-02T18:52:34.246Z,47.25
2018-03-02T18:55:02.625Z,43.42
2018-03-02T18:57:30.292Z,42.03
2018-03-02T18:59:57.930Z,39.10
2018-03-02T19:02:26.345Z,47.88
2018-03-02T19:04:53.935Z,47.28
2018-03-02T19:07:21.648Z,41.65
2018-03-02T19:09:50.009Z,44.20
2018-03-02T19:12:18.952Z,43.58
2018-03-02T19:14:46.531Z,46.45
2018-03-02T19:17:14.133Z,45.78
2018-03-02T19:19:42.495Z,46.40
2018-03-02T19:22:10.103Z,45.75
2018-03-02T19:24:37.691Z,39.50
2018-03-02T19:27:05.292Z,45.92
2018-03-02T19:29:33.701Z,43.58
2018-03-02T19:32:01.331Z,44.63
2018-03-02T19:34:29.704Z,47.67
2018-03-02T19:36:58.087Z,47.03
2018-03-02T19:39:26.461Z,46.90
2018-03-02T19:41:54.049Z,54.33
2018-03-02T19:44:21.626Z,46.47
2018-03-02T19:46:49.228Z,46.22
2018-03-02T19:49:16.835Z,48.67
2018-03-02T19:51:44.503Z,45.53
2018-03-02T19:54:12.853Z,48.25
2018-03-02T19:56:41.594Z,43.42
2018-03-02T19:59:09.209Z,43.60
2018-03-02T20:01:36.857Z,45.42
2018-03-02T20:04:04.479Z,46.75
2018-03-02T20:06:32.092Z,45.78
2018-03-02T20:09:00.456Z,47.92
2018-03-02T20:11:28.132Z,43.92
2018-03-02T20:13:56.399Z,43.17
2018-03-02T20:16:24.790Z,49.85
2018-03-02T20:18:53.146Z,46.97
2018-03-02T20:21:20.836Z,48.95
2018-03-02T20:23:49.179Z,42.20
2018-03-02T20:26:17.574Z,46.17
2018-03-02T20:28:45.161Z,46.35
2018-03-02T20:31:12.755Z,46.58
2018-03-02T20:33:40.427Z,43.08
2018-03-02T20:36:08.021Z,45.55
2018-03-02T20:38:36.697Z,51.95
2018-03-02T20:41:05.527Z,52.80
2018-03-02T20:43:36.039Z,48.13
2018-03-02T20:46:03.790Z,47.22
2018-03-02T20:48:33.189Z,46.00
2018-03-02T20:51:01.575Z,45.78
2018-03-02T20:53:30.855Z,48.50
2018-03-02T20:55:59.491Z,48.47
2018-03-02T20:58:28.240Z,50.65
2018-03-02T21:00:56.095Z,48.80
2018-03-02T21:03:25.226Z,51.55
2018-03-02T21:05:54.426Z,52.90
2018-03-02T21:08:22.799Z,51.78
2018-03-02T21:10:50.458Z,57.40
2018-03-02T21:13:19.885Z,51.85
2018-03-02T21:15:48.235Z,55.50
2018-03-02T21:18:16.593Z,51.35
2018-03-02T21:20:44.792Z,53.20
2018-03-02T21:23:13.173Z,56.15
2018-03-02T21:25:41.560Z,50.38
2018-03-02T21:28:09.936Z,54.28
2018-03-02T21:30:37.588Z,53.03
2018-03-02T21:33:05.978Z,52.72
2018-03-02T21:35:34.404Z,55.63
2018-03-02T21:38:02.322Z,51.47
2018-03-02T21:40:30.919Z,49.75
2018-03-02T21:42:59.320Z,54.78
2018-03-02T21:45:27.180Z,56.30
2018-03-02T21:47:55.707Z,56.70
2018-03-02T21:50:26.913Z,59.30
2018-03-02T21:52:52.827Z,58.45
2018-03-02T21:55:20.468Z,52.20
2018-03-02T21:57:48.836Z,57.13
2018-03-02T22:00:17.197Z,48.22
2018-03-02T22:02:45.213Z,49.03
2018-03-02T22:05:12.846Z,48.85
2018-03-02T22:07:41.234Z,50.15
2018-03-02T22:10:09.587Z,51.67
2018-03-02T22:12:37.194Z,50.80
2018-03-02T22:15:06.142Z,50.55
2018-03-02T22:17:34.297Z,50.83
2018-03-02T22:20:01.881Z,48.78
2018-03-02T22:22:29.561Z,46.15
2018-03-02T22:24:57.942Z,48.63
2018-03-02T22:27:26.313Z,47.17
2018-03-02T22:29:54.746Z,50.35
2018-03-02T22:32:22.398Z,49.33
2018-03-02T22:34:50.274Z,46.13
2018-03-02T22:37:17.967Z,47.70
2018-03-02T22:39:45.646Z,53.83
2018-03-02T22:42:13.999Z,44.60
2018-03-02T22:44:41.597Z,49.97
2018-03-02T22:47:09.241Z,43.15
2018-03-02T22:49:36.823Z,48.63
2018-03-02T22:52:05.191Z,48.08
2018-03-02T22:54:33.536Z,45.65
2018-03-02T22:57:01.211Z,42.42
2018-03-02T22:59:28.875Z,50.50
2018-03-02T23:01:56.549Z,43.85
2018-03-02T23:04:24.962Z,47.30
2018-03-02T23:06:52.558Z,47.62
2018-03-02T23:09:20.168Z,49.33
2018-03-02T23:11:47.755Z,44.13
2018-03-02T23:14:15.340Z,49.72
2018-03-02T23:16:42.944Z,47.40
2018-03-02T23:19:11.298Z,49.45
2018-03-02T23:21:38.968Z,49.72
2018-03-02T23:24:06.547Z,49.83
2018-03-02T23:26:34.901Z,46.78
2018-03-02T23:29:02.577Z,47.47
2018-03-02T23:31:30.951Z,49.38
2018-03-02T23:33:58.535Z,49.78
2018-03-02T23:36:26.903Z,48.95
2018-03-02T23:38:55.281Z,48.22
2018-03-02T23:41:23.635Z,46.20
2018-03-02T23:43:51.235Z,48.50
2018-03-02T23:46:18.865Z,47.62
2018-03-02T23:48:46.435Z,45.58
2018-03-02T23:51:14.796Z,47.05
2018-03-02T23:53:42.467Z,45.95
2018-03-02T23:56:10.162Z,49.17
2018-03-02T23:58:37.738Z,48.28
